sensor_id;sensor_type;location;lat;lon;timestamp;pressure;altitude;pressure_sealevel;temperature;humidity
67015;BME280;1033;52.560;13.374;2023-01-28T00:00:26;102219.78;;;-1.39;97.75
67015;BME280;1033;52.560;13.374;2023-01-28T00:02:58;102214.72;;;-1.57;97.83
67015;BME280;1033;52.560;13.374;2023-01-28T00:05:29;102215.94;;;-1.63;98.92
67015;BME280;1033;52.560;13.374;2023-01-28T00:08:01;102212.16;;;-1.59;98.70
67015;BME280;1033;52.560;13.374;2023-01-28T00:10:36;102217.13;;;-1.39;99.06
67015;BME280;1033;52.560;13.374;2023-01-28T00:13:07;102220.22;;;-1.60;99.37
67015;BME280;1033;52.560;13.374;2023-01-28T00:15:40;102217.66;;;-1.62;99.38
67015;BME280;1033;52.560;13.374;2023-01-28T00:18:13;102214.81;;;-1.59;99.32
67015;BME280;1033;52.560;13.374;2023-01-28T00:20:55;102224.47;;;-1.58;99.19
67015;BME280;1033;52.560;13.374;2023-01-28T00:23:31;102221.59;;;-1.69;98.64
67015;BME280;1033;52.560;13.374;2023-01-28T00:26:13;102226.91;;;-1.69;99.12
67015;BME280;1033;52.560;13.374;2023-01-28T00:28:48;102234.78;;;-1.67;98.73
67015;BME280;1033;52.560;13.374;2023-01-28T00:31:24;102227.88;;;-1.70;98.82
67015;BME280;1033;52.560;13.374;2023-01-28T00:33:57;102227.69;;;-1.67;98.72
67015;BME280;1033;52.560;13.374;2023-01-28T00:36:28;102230.22;;;-1.80;98.79
67015;BME280;1033;52.560;13.374;2023-01-28T00:39:01;102226.75;;;-1.96;99.20
67015;BME280;1033;52.560;13.374;2023-01-28T00:41:36;102221.19;;;-1.91;99.72
67015;BME280;1033;52.560;13.374;2023-01-28T00:44:08;102223.97;;;-2.08;100.00
67015;BME280;1033;52.560;13.374;2023-01-28T00:46:40;102228.91;;;-2.02;100.00
67015;BME280;1033;52.560;13.374;2023-01-28T00:49:12;102225.03;;;-1.97;100.00
67015;BME280;1033;52.560;13.374;2023-01-28T00:51:47;102222.91;;;-1.90;100.00
67015;BME280;1033;52.560;13.374;2023-01-28T00:54:22;102233.50;;;-1.90;100.00
67015;BME280;1033;52.560;13.374;2023-01-28T00:56:57;102236.84;;;-2.02;100.00
67015;BME280;1033;52.560;13.374;2023-01-28T00:59:30;102244.16;;;-2.06;100.00
67015;BME280;1033;52.560;13.374;2023-01-28T01:02:06;102237.44;;;-1.97;100.00
67015;BME280;1033;52.560;13.374;2023-01-28T01:04:46;102238.25;;;-1.51;100.00
67015;BME280;1033;52.560;13.374;2023-01-28T01:07:29;102240.03;;;-1.66;100.00
67015;BME280;1033;52.560;13.374;2023-01-28T01:10:13;102237.19;;;-1.63;100.00
67015;BME280;1033;52.560;13.374;2023-01-28T01:12:49;102239.00;;;-1.49;99.02
67015;BME280;1033;52.560;13.374;2023-01-28T01:15:20;102238.91;;;-1.48;99.72
67015;BME280;1033;52.560;13.374;2023-01-28T01:17:51;102235.53;;;-1.36;98.82
67015;BME280;1033;52.560;13.374;2023-01-28T01:20:23;102223.19;;;-1.37;98.91
67015;BME280;1033;52.560;13.374;2023-01-28T01:22:56;102233.81;;;-0.80;98.49
67015;BME280;1033;52.560;13.374;2023-01-28T01:25:26;102236.13;;;-0.88;96.05
67015;BME280;1033;52.560;13.374;2023-01-28T01:28:00;102235.25;;;-0.89;95.06
67015;BME280;1033;52.560;13.374;2023-01-28T01:30:31;102235.84;;;-0.98;94.45
67015;BME280;1033;52.560;13.374;2023-01-28T01:33:06;102232.50;;;-1.01;94.44
67015;BME280;1033;52.560;13.374;2023-01-28T01:35:40;102240.09;;;-0.95;94.37
67015;BME280;1033;52.560;13.374;2023-01-28T01:38:13;102240.00;;;-0.94;94.11
67015;BME280;1033;52.560;13.374;2023-01-28T01:40:44;102237.16;;;-0.91;94.09
67015;BME280;1033;52.560;13.374;2023-01-28T01:43:20;102241.03;;;-0.96;93.83
67015;BME280;1033;52.560;13.374;2023-01-28T01:45:57;102249.41;;;-1.02;94.07
67015;BME280;1033;52.560;13.374;2023-01-28T01:48:34;102248.44;;;-0.87;93.65
67015;BME280;1033;52.560;13.374;2023-01-28T01:51:20;102251.00;;;-0.71;93.16
67015;BME280;1033;52.560;13.374;2023-01-28T01:53:56;102252.41;;;-0.66;93.24
67015;BME280;1033;52.560;13.374;2023-01-28T01:56:34;102255.81;;;-0.50;92.70
67015;BME280;1033;52.560;13.374;2023-01-28T01:59:23;102251.41;;;-0.36;91.90
67015;BME280;1033;52.560;13.374;2023-01-28T02:02:06;102251.53;;;-0.11;91.89
67015;BME280;1033;52.560;13.374;2023-01-28T02:04:41;102253.81;;;-0.05;90.37
67015;BME280;1033;52.560;13.374;2023-01-28T02:07:17;102262.41;;;-0.28;88.80
67015;BME280;1033;52.560;13.374;2023-01-28T02:09:49;102259.53;;;-0.11;90.31
67015;BME280;1033;52.560;13.374;2023-01-28T02:12:23;102251.72;;;-0.14;90.00
67015;BME280;1033;52.560;13.374;2023-01-28T02:15:05;102254.06;;;-0.36;89.31
67015;BME280;1033;52.560;13.374;2023-01-28T02:17:38;102251.63;;;-0.39;90.33
67015;BME280;1033;52.560;13.374;2023-01-28T02:20:10;102250.34;;;-0.20;89.39
67015;BME280;1033;52.560;13.374;2023-01-28T02:26:09;102251.53;;;-0.11;89.05
67015;BME280;1033;52.560;13.374;2023-01-28T02:28:55;102253.81;;;-0.05;88.73
67015;BME280;1033;52.560;13.374;2023-01-28T02:31:36;102245.31;;;0.15;88.80
67015;BME280;1033;52.560;13.374;2023-01-28T02:34:17;102252.09;;;-0.06;87.10
67015;BME280;1033;52.560;13.374;2023-01-28T02:36:53;102250.72;;;-0.26;87.39
67015;BME280;1033;52.560;13.374;2023-01-28T02:39:33;102255.47;;;-0.04;88.24
67015;BME280;1033;52.560;13.374;2023-01-28T02:42:09;102254.88;;;-0.22;87.72
67015;BME280;1033;52.560;13.374;2023-01-28T02:44:47;102260.25;;;-0.09;87.14
67015;BME280;1033;52.560;13.374;2023-01-28T02:47:18;102254.38;;;-0.14;87.89
67015;BME280;1033;52.560;13.374;2023-01-28T02:50:08;102249.88;;;-0.26;87.50
67015;BME280;1033;52.560;13.374;2023-01-28T02:52:55;102255.19;;;-0.26;87.99
67015;BME280;1033;52.560;13.374;2023-01-28T02:55:55;102255.84;;;-0.23;87.14
67015;BME280;1033;52.560;13.374;2023-01-28T02:58:36;102257.28;;;-0.31;88.49
67015;BME280;1033;52.560;13.374;2023-01-28T03:01:18;102255.75;;;-0.21;88.22
67015;BME280;1033;52.560;13.374;2023-01-28T03:04:00;102255.53;;;-0.18;87.00
67015;BME280;1033;52.560;13.374;2023-01-28T03:06:39;102257.19;;;-0.03;88.01
67015;BME280;1033;52.560;13.374;2023-01-28T03:09:14;102255.34;;;-0.15;86.95
67015;BME280;1033;52.560;13.374;2023-01-28T03:11:55;102257.16;;;-0.16;86.68
67015;BME280;1033;52.560;13.374;2023-01-28T03:14:48;102258.34;;;-0.07;87.26
67015;BME280;1033;52.560;13.374;2023-01-28T03:17:44;102255.63;;;0.07;87.38
67015;BME280;1033;52.560;13.374;2023-01-28T03:20:38;102255.94;;;0.03;86.10
67015;BME280;1033;52.560;13.374;2023-01-28T03:23:35;102254.75;;;-0.06;84.93
67015;BME280;1033;52.560;13.374;2023-01-28T03:26:26;102263.34;;;-0.15;85.37
67015;BME280;1033;52.560;13.374;2023-01-28T03:29:20;102256.34;;;-0.30;85.71
67015;BME280;1033;52.560;13.374;2023-01-28T03:32:12;102261.09;;;-0.09;87.41
67015;BME280;1033;52.560;13.374;2023-01-28T03:35:03;102256.59;;;0.06;85.81
67015;BME280;1033;52.560;13.374;2023-01-28T03:37:55;102255.69;;;-0.07;84.61
67015;BME280;1033;52.560;13.374;2023-01-28T03:40:29;102257.16;;;-0.16;84.44
67015;BME280;1033;52.560;13.374;2023-01-28T03:42:59;102258.16;;;-0.04;83.82
67015;BME280;1033;52.560;13.374;2023-01-28T03:45:34;102254.97;;;-0.23;83.64
67015;BME280;1033;52.560;13.374;2023-01-28T03:48:08;102256.34;;;-0.04;83.62
67015;BME280;1033;52.560;13.374;2023-01-28T03:50:40;102253.53;;;0.12;82.47
67015;BME280;1033;52.560;13.374;2023-01-28T03:53:13;102261.00;;;0.20;82.61
67015;BME280;1033;52.560;13.374;2023-01-28T03:55:46;102259.41;;;0.17;82.60
67015;BME280;1033;52.560;13.374;2023-01-28T03:58:20;102248.69;;;0.31;77.36
67015;BME280;1033;52.560;13.374;2023-01-28T04:00:56;102252.53;;;0.40;74.53
67015;BME280;1033;52.560;13.374;2023-01-28T04:03:28;102239.75;;;0.32;75.45
67015;BME280;1033;52.560;13.374;2023-01-28T04:06:06;102250.38;;;0.32;77.19
67015;BME280;1033;52.560;13.374;2023-01-28T04:09:11;102253.25;;;0.29;77.85
67015;BME280;1033;52.560;13.374;2023-01-28T04:11:55;102254.00;;;0.44;78.12
67015;BME280;1033;52.560;13.374;2023-01-28T04:14:30;102248.50;;;0.47;76.79
67015;BME280;1033;52.560;13.374;2023-01-28T04:17:23;102246.69;;;0.48;76.75
67015;BME280;1033;52.560;13.374;2023-01-28T04:19:57;102252.22;;;0.44;76.82
67015;BME280;1033;52.560;13.374;2023-01-28T04:22:34;102250.16;;;0.35;76.69
67015;BME280;1033;52.560;13.374;2023-01-28T04:25:12;102252.34;;;0.56;77.73
67015;BME280;1033;52.560;13.374;2023-01-28T04:27:46;102245.00;;;0.84;78.65
67015;BME280;1033;52.560;13.374;2023-01-28T04:30:22;102239.66;;;0.97;76.91
67015;BME280;1033;52.560;13.374;2023-01-28T04:33:05;102247.56;;;0.99;75.33
67015;BME280;1033;52.560;13.374;2023-01-28T04:35:54;102257.38;;;0.85;73.81
67015;BME280;1033;52.560;13.374;2023-01-28T04:38:47;102256.63;;;0.71;74.25
67015;BME280;1033;52.560;13.374;2023-01-28T04:41:38;102260.34;;;0.56;74.64
67015;BME280;1033;52.560;13.374;2023-01-28T04:44:43;102246.06;;;0.69;75.02
67015;BME280;1033;52.560;13.374;2023-01-28T04:47:40;102252.88;;;0.61;74.78
67015;BME280;1033;52.560;13.374;2023-01-28T04:50:29;102255.44;;;0.75;75.71
67015;BME280;1033;52.560;13.374;2023-01-28T04:53:18;102246.09;;;0.82;73.19
67015;BME280;1033;52.560;13.374;2023-01-28T04:56:10;102250.75;;;0.66;73.05
67015;BME280;1033;52.560;13.374;2023-01-28T04:58:42;102246.16;;;0.55;74.09
67015;BME280;1033;52.560;13.374;2023-01-28T05:01:16;102243.31;;;0.71;73.90
67015;BME280;1033;52.560;13.374;2023-01-28T05:04:06;102249.03;;;0.65;74.60
67015;BME280;1033;52.560;13.374;2023-01-28T05:06:39;102250.97;;;0.88;74.91
67015;BME280;1033;52.560;13.374;2023-01-28T05:09:21;102261.00;;;0.84;73.78
67015;BME280;1033;52.560;13.374;2023-01-28T05:11:55;102258.22;;;0.99;73.19
67015;BME280;1033;52.560;13.374;2023-01-28T05:14:31;102256.44;;;0.86;73.31
67015;BME280;1033;52.560;13.374;2023-01-28T05:17:11;102267.59;;;0.79;73.13
67015;BME280;1033;52.560;13.374;2023-01-28T05:19:41;102264.72;;;0.69;73.85
67015;BME280;1033;52.560;13.374;2023-01-28T05:22:20;102271.00;;;0.68;74.15
67015;BME280;1033;52.560;13.374;2023-01-28T05:25:10;102277.81;;;0.60;73.82
67015;BME280;1033;52.560;13.374;2023-01-28T05:27:47;102272.53;;;0.72;73.33
67015;BME280;1033;52.560;13.374;2023-01-28T05:30:21;102277.84;;;0.72;73.09
67015;BME280;1033;52.560;13.374;2023-01-28T05:32:57;102277.22;;;0.81;71.69
67015;BME280;1033;52.560;13.374;2023-01-28T05:35:29;102270.25;;;0.79;71.00
67015;BME280;1033;52.560;13.374;2023-01-28T05:38:00;102279.75;;;0.70;71.58
67015;BME280;1033;52.560;13.374;2023-01-28T05:40:32;102267.59;;;0.79;72.91
67015;BME280;1033;52.560;13.374;2023-01-28T05:43:08;102264.28;;;0.88;70.94
67015;BME280;1033;52.560;13.374;2023-01-28T05:45:44;102277.09;;;0.96;71.87
67015;BME280;1033;52.560;13.374;2023-01-28T05:48:21;102270.28;;;1.04;70.32
67015;BME280;1033;52.560;13.374;2023-01-28T05:51:19;102274.44;;;0.96;71.03
67015;BME280;1033;52.560;13.374;2023-01-28T05:53:55;102274.66;;;1.05;70.24
67015;BME280;1033;52.560;13.374;2023-01-28T05:56:26;102271.13;;;0.92;71.26
67015;BME280;1033;52.560;13.374;2023-01-28T05:59:00;102282.53;;;0.94;72.16
67015;BME280;1033;52.560;13.374;2023-01-28T06:01:32;102278.16;;;0.93;70.77
67015;BME280;1033;52.560;13.374;2023-01-28T06:04:06;102274.22;;;0.86;71.10
67015;BME280;1033;52.560;13.374;2023-01-28T06:06:36;102277.44;;;0.91;71.75
67015;BME280;1033;52.560;13.374;2023-01-28T06:09:07;102266.75;;;0.91;70.65
67015;BME280;1033;52.560;13.374;2023-01-28T06:11:40;102269.09;;;0.83;70.11
67015;BME280;1033;52.560;13.374;2023-01-28T06:14:16;102272.28;;;0.75;71.03
67015;BME280;1033;52.560;13.374;2023-01-28T06:17:05;102280.50;;;0.85;70.23
67015;BME280;1033;52.560;13.374;2023-01-28T06:19:54;102282.09;;;0.75;70.96
67015;BME280;1033;52.560;13.374;2023-01-28T06:22:27;102277.94;;;0.71;71.07
67015;BME280;1033;52.560;13.374;2023-01-28T06:24:58;102288.09;;;0.91;70.21
67015;BME280;1033;52.560;13.374;2023-01-28T06:27:29;102289.03;;;0.90;68.90
67015;BME280;1033;52.560;13.374;2023-01-28T06:30:06;102287.88;;;0.94;68.98
67015;BME280;1033;52.560;13.374;2023-01-28T06:32:36;102286.88;;;0.82;69.72
67015;BME280;1033;52.560;13.374;2023-01-28T06:35:08;102280.81;;;0.80;70.26
67015;BME280;1033;52.560;13.374;2023-01-28T06:37:41;102289.91;;;0.91;70.12
67015;BME280;1033;52.560;13.374;2023-01-28T06:40:12;102289.38;;;0.85;70.55
67015;BME280;1033;52.560;13.374;2023-01-28T06:42:44;102288.50;;;0.98;72.66
67015;BME280;1033;52.560;13.374;2023-01-28T06:45:16;102293.72;;;0.99;70.70
67015;BME280;1033;52.560;13.374;2023-01-28T06:47:53;102292.56;;;1.16;71.47
67015;BME280;1033;52.560;13.374;2023-01-28T06:50:26;102294.81;;;0.97;71.10
67015;BME280;1033;52.560;13.374;2023-01-28T06:52:58;102301.19;;;1.07;71.11
67015;BME280;1033;52.560;13.374;2023-01-28T06:55:33;102294.16;;;1.18;71.35
67015;BME280;1033;52.560;13.374;2023-01-28T06:58:04;102299.06;;;1.24;70.44
67015;BME280;1033;52.560;13.374;2023-01-28T07:00:37;102300.13;;;1.35;70.53
67015;BME280;1033;52.560;13.374;2023-01-28T07:03:12;102297.25;;;1.12;70.18
67015;BME280;1033;52.560;13.374;2023-01-28T07:05:43;102298.41;;;1.08;70.96
67015;BME280;1033;52.560;13.374;2023-01-28T07:08:13;102300.66;;;1.14;71.12
67015;BME280;1033;52.560;13.374;2023-01-28T07:10:45;102297.69;;;1.06;69.87
67015;BME280;1033;52.560;13.374;2023-01-28T07:13:16;102297.25;;;1.12;68.90
67015;BME280;1033;52.560;13.374;2023-01-28T07:15:50;102299.59;;;1.04;69.18
67015;BME280;1033;52.560;13.374;2023-01-28T07:18:20;102304.31;;;1.01;69.49
67015;BME280;1033;52.560;13.374;2023-01-28T07:20:52;102306.41;;;1.08;68.96
67015;BME280;1033;52.560;13.374;2023-01-28T07:23:23;102303.44;;;1.13;68.14
67015;BME280;1033;52.560;13.374;2023-01-28T07:26:01;102306.66;;;1.05;69.14
67015;BME280;1033;52.560;13.374;2023-01-28T07:28:31;102304.59;;;1.34;69.78
67015;BME280;1033;52.560;13.374;2023-01-28T07:31:03;102299.69;;;1.28;68.71
67015;BME280;1033;52.560;13.374;2023-01-28T07:33:36;102305.13;;;1.26;68.85
67015;BME280;1033;52.560;13.374;2023-01-28T07:36:09;102304.50;;;1.23;68.27
67015;BME280;1033;52.560;13.374;2023-01-28T07:38:42;102300.66;;;1.40;68.75
67015;BME280;1033;52.560;13.374;2023-01-28T07:41:21;102294.03;;;1.33;68.85
67015;BME280;1033;52.560;13.374;2023-01-28T07:43:54;102293.59;;;1.39;68.88
67015;BME280;1033;52.560;13.374;2023-01-28T07:46:31;102302.97;;;1.57;67.94
67015;BME280;1033;52.560;13.374;2023-01-28T07:49:03;102299.38;;;1.33;67.60
67015;BME280;1033;52.560;13.374;2023-01-28T07:51:36;102310.66;;;1.36;68.28
67015;BME280;1033;52.560;13.374;2023-01-28T07:54:07;102307.13;;;1.36;66.29
67015;BME280;1033;52.560;13.374;2023-01-28T07:56:37;102297.44;;;1.47;66.40
67015;BME280;1033;52.560;13.374;2023-01-28T07:59:09;102298.19;;;1.37;66.34
67015;BME280;1033;52.560;13.374;2023-01-28T08:01:42;102303.41;;;1.38;66.09
67015;BME280;1033;52.560;13.374;2023-01-28T08:04:16;102301.38;;;1.42;65.75
67015;BME280;1033;52.560;13.374;2023-01-28T08:06:48;102310.56;;;1.38;64.82
67015;BME280;1033;52.560;13.374;2023-01-28T08:09:20;102312.59;;;1.34;65.81
67015;BME280;1033;52.560;13.374;2023-01-28T08:11:51;102312.78;;;1.56;65.93
67015;BME280;1033;52.560;13.374;2023-01-28T08:14:23;102322.38;;;1.59;64.91
67015;BME280;1033;52.560;13.374;2023-01-28T08:16:57;102318.72;;;1.72;64.98
67015;BME280;1033;52.560;13.374;2023-01-28T08:19:27;102322.09;;;1.87;65.14
67015;BME280;1033;52.560;13.374;2023-01-28T08:22:00;102324.69;;;1.89;64.07
67015;BME280;1033;52.560;13.374;2023-01-28T08:24:34;102324.88;;;1.86;64.00
67015;BME280;1033;52.560;13.374;2023-01-28T08:27:06;102327.34;;;1.76;63.54
67015;BME280;1033;52.560;13.374;2023-01-28T08:29:40;102329.16;;;1.75;64.11
67015;BME280;1033;52.560;13.374;2023-01-28T08:32:12;102335.47;;;2.11;64.39
67015;BME280;1033;52.560;13.374;2023-01-28T08:34:42;102337.56;;;2.18;64.78
67015;BME280;1033;52.560;13.374;2023-01-28T08:37:14;102347.81;;;2.25;63.40
67015;BME280;1033;52.560;13.374;2023-01-28T08:39:44;102345.06;;;2.13;62.66
67015;BME280;1033;52.560;13.374;2023-01-28T08:42:15;102336.03;;;2.03;63.25
67015;BME280;1033;52.560;13.374;2023-01-28T08:44:46;102353.25;;;1.99;63.74
67015;BME280;1033;52.560;13.374;2023-01-28T08:47:21;102345.13;;;2.01;62.55
67015;BME280;1033;52.560;13.374;2023-01-28T08:49:51;102344.84;;;1.93;62.96
67015;BME280;1033;52.560;13.374;2023-01-28T08:52:24;102342.50;;;1.88;63.81
67015;BME280;1033;52.560;13.374;2023-01-28T08:54:54;102345.97;;;2.01;63.01
67015;BME280;1033;52.560;13.374;2023-01-28T08:57:24;102353.31;;;2.10;62.49
67015;BME280;1033;52.560;13.374;2023-01-28T08:59:55;102357.59;;;2.13;61.95
67015;BME280;1033;52.560;13.374;2023-01-28T09:02:29;102352.56;;;2.08;61.24
67015;BME280;1033;52.560;13.374;2023-01-28T09:05:00;102359.75;;;2.08;60.91
67015;BME280;1033;52.560;13.374;2023-01-28T09:07:30;102361.63;;;2.18;60.66
67015;BME280;1033;52.560;13.374;2023-01-28T09:10:01;102365.44;;;2.27;60.72
67015;BME280;1033;52.560;13.374;2023-01-28T09:12:32;102364.09;;;2.22;59.71
67015;BME280;1033;52.560;13.374;2023-01-28T09:15:05;102363.59;;;2.28;60.29
67015;BME280;1033;52.560;13.374;2023-01-28T09:17:40;102370.28;;;2.22;60.94
67015;BME280;1033;52.560;13.374;2023-01-28T09:20:11;102378.00;;;2.38;60.39
67015;BME280;1033;52.560;13.374;2023-01-28T09:22:42;102380.66;;;2.38;60.55
67015;BME280;1033;52.560;13.374;2023-01-28T09:25:13;102386.25;;;2.35;60.49
67015;BME280;1033;52.560;13.374;2023-01-28T09:27:44;102386.41;;;2.44;60.37
67015;BME280;1033;52.560;13.374;2023-01-28T09:30:18;102374.66;;;2.47;59.46
67015;BME280;1033;52.560;13.374;2023-01-28T09:32:52;102379.00;;;2.37;59.94
67015;BME280;1033;52.560;13.374;2023-01-28T09:35:23;102387.34;;;2.32;60.36
67015;BME280;1033;52.560;13.374;2023-01-28T09:37:57;102391.22;;;2.15;61.50
67015;BME280;1033;52.560;13.374;2023-01-28T09:40:34;102384.69;;;2.19;60.44
67015;BME280;1033;52.560;13.374;2023-01-28T09:43:34;102386.25;;;2.35;59.56
67015;BME280;1033;52.560;13.374;2023-01-28T09:46:12;102399.94;;;2.30;59.92
67015;BME280;1033;52.560;13.374;2023-01-28T09:48:49;102391.81;;;2.32;60.04
67015;BME280;1033;52.560;13.374;2023-01-28T09:51:31;102385.63;;;2.31;59.88
67015;BME280;1033;52.560;13.374;2023-01-28T09:54:10;102386.69;;;2.29;59.73
67015;BME280;1033;52.560;13.374;2023-01-28T09:56:46;102397.16;;;2.32;60.07
67015;BME280;1033;52.560;13.374;2023-01-28T09:59:25;102401.88;;;2.28;60.54
67015;BME280;1033;52.560;13.374;2023-01-28T10:02:01;102403.56;;;2.42;60.43
67015;BME280;1033;52.560;13.374;2023-01-28T10:04:48;102394.09;;;2.49;59.88
67015;BME280;1033;52.560;13.374;2023-01-28T10:07:29;102383.25;;;2.39;59.72
67015;BME280;1033;52.560;13.374;2023-01-28T10:10:10;102392.72;;;2.43;59.85
67015;BME280;1033;52.560;13.374;2023-01-28T10:13:03;102389.69;;;2.37;60.29
67015;BME280;1033;52.560;13.374;2023-01-28T10:16:05;102387.00;;;2.37;59.86
67015;BME280;1033;52.560;13.374;2023-01-28T10:18:44;102376.69;;;2.67;60.06
67015;BME280;1033;52.560;13.374;2023-01-28T10:21:20;102386.31;;;2.70;58.49
67015;BME280;1033;52.560;13.374;2023-01-28T10:23:58;102383.03;;;2.77;58.89
67015;BME280;1033;52.560;13.374;2023-01-28T10:26:34;102374.59;;;2.59;58.93
67015;BME280;1033;52.560;13.374;2023-01-28T10:29:12;102370.22;;;2.58;58.43
67015;BME280;1033;52.560;13.374;2023-01-28T10:31:50;102373.50;;;2.62;58.83
67015;BME280;1033;52.560;13.374;2023-01-28T10:34:24;102371.16;;;2.81;58.89
67015;BME280;1033;52.560;13.374;2023-01-28T10:37:00;102370.94;;;2.95;59.04
67015;BME280;1033;52.560;13.374;2023-01-28T10:39:31;102373.28;;;2.65;58.16
67015;BME280;1033;52.560;13.374;2023-01-28T10:42:19;102367.88;;;2.54;58.46
67015;BME280;1033;52.560;13.374;2023-01-28T10:44:52;102366.13;;;2.42;59.49
67015;BME280;1033;52.560;13.374;2023-01-28T10:47:30;102372.53;;;2.63;60.08
67015;BME280;1033;52.560;13.374;2023-01-28T10:50:03;102366.63;;;2.71;59.33
67015;BME280;1033;52.560;13.374;2023-01-28T10:52:36;102367.66;;;2.81;58.37
67015;BME280;1033;52.560;13.374;2023-01-28T10:55:13;102364.75;;;2.60;58.55
67015;BME280;1033;52.560;13.374;2023-01-28T10:57:44;102369.00;;;2.62;59.27
67015;BME280;1033;52.560;13.374;2023-01-28T11:00:24;102371.38;;;2.78;58.70
67015;BME280;1033;52.560;13.374;2023-01-28T11:02:58;102370.63;;;2.76;58.27
67015;BME280;1033;52.560;13.374;2023-01-28T11:05:29;102367.97;;;2.76;58.00
67015;BME280;1033;52.560;13.374;2023-01-28T11:08:27;102364.06;;;2.69;58.10
67015;BME280;1033;52.560;13.374;2023-01-28T11:10:58;102361.34;;;2.58;58.90
67015;BME280;1033;52.560;13.374;2023-01-28T11:13:30;102361.00;;;2.39;59.37
67015;BME280;1033;52.560;13.374;2023-01-28T11:16:02;102363.75;;;2.50;60.07
67015;BME280;1033;52.560;13.374;2023-01-28T11:18:37;102366.31;;;2.51;59.42
67015;BME280;1033;52.560;13.374;2023-01-28T11:21:17;102362.59;;;2.65;59.11
67015;BME280;1033;52.560;13.374;2023-01-28T11:23:53;102354.06;;;2.60;59.85
67015;BME280;1033;52.560;13.374;2023-01-28T11:26:28;102357.97;;;2.67;60.00
67015;BME280;1033;52.560;13.374;2023-01-28T11:29:00;102356.84;;;2.58;59.90
67015;BME280;1033;52.560;13.374;2023-01-28T11:31:41;102355.28;;;2.67;60.02
67015;BME280;1033;52.560;13.374;2023-01-28T11:34:18;102350.88;;;2.55;60.72
67015;BME280;1033;52.560;13.374;2023-01-28T11:36:53;102347.72;;;2.50;61.29
67015;BME280;1033;52.560;13.374;2023-01-28T11:39:28;102352.63;;;2.67;62.57
67015;BME280;1033;52.560;13.374;2023-01-28T11:42:12;102341.13;;;2.78;63.25
67015;BME280;1033;52.560;13.374;2023-01-28T11:44:47;102342.34;;;2.74;64.03
67015;BME280;1033;52.560;13.374;2023-01-28T11:47:25;102333.22;;;2.76;64.91
67015;BME280;1033;52.560;13.374;2023-01-28T11:56:28;102331.81;;;2.94;65.39
67015;BME280;1033;52.560;13.374;2023-01-28T11:59:26;102329.38;;;2.91;65.53
67015;BME280;1033;52.560;13.374;2023-01-28T12:02:12;102327.69;;;3.01;65.46
67015;BME280;1033;52.560;13.374;2023-01-28T12:07:56;102331.03;;;2.81;66.51
67015;BME280;1033;52.560;13.374;2023-01-28T12:10:40;102325.97;;;2.89;66.12
67015;BME280;1033;52.560;13.374;2023-01-28T12:13:33;102326.47;;;2.94;66.25
67015;BME280;1033;52.560;13.374;2023-01-28T12:16:17;102320.88;;;2.97;65.80
67015;BME280;1033;52.560;13.374;2023-01-28T12:22:31;102314.34;;;3.13;66.03
67015;BME280;1033;52.560;13.374;2023-01-28T12:25:23;102320.16;;;3.06;65.76
67015;BME280;1033;52.560;13.374;2023-01-28T12:28:06;102317.00;;;3.01;66.32
67015;BME280;1033;52.560;13.374;2023-01-28T12:30:56;102321.50;;;3.01;65.58
67015;BME280;1033;52.560;13.374;2023-01-28T12:33:48;102324.38;;;2.87;65.49
67015;BME280;1033;52.560;13.374;2023-01-28T12:36:33;102316.72;;;2.82;65.77
67015;BME280;1033;52.560;13.374;2023-01-28T12:39:18;102314.06;;;2.93;66.44
67015;BME280;1033;52.560;13.374;2023-01-28T12:41:59;102320.03;;;2.97;66.05
67015;BME280;1033;52.560;13.374;2023-01-28T12:44:36;102312.53;;;2.67;66.00
67015;BME280;1033;52.560;13.374;2023-01-28T12:47:15;102304.09;;;2.84;66.19
67015;BME280;1033;52.560;13.374;2023-01-28T12:49:52;102306.75;;;2.95;66.02
67015;BME280;1033;52.560;13.374;2023-01-28T12:52:31;102302.88;;;2.88;65.39
67015;BME280;1033;52.560;13.374;2023-01-28T12:55:14;102308.22;;;2.88;65.71
67015;BME280;1033;52.560;13.374;2023-01-28T12:57:48;102310.75;;;2.79;64.86
67015;BME280;1033;52.560;13.374;2023-01-28T13:00:26;102303.59;;;2.79;64.63
67015;BME280;1033;52.560;13.374;2023-01-28T13:03:13;102297.06;;;2.94;64.86
67015;BME280;1033;52.560;13.374;2023-01-28T13:05:50;102293.63;;;2.81;65.33
67015;BME280;1033;52.560;13.374;2023-01-28T13:08:25;102293.41;;;2.84;65.63
67015;BME280;1033;52.560;13.374;2023-01-28T13:10:59;102288.91;;;2.85;65.21
67015;BME280;1033;52.560;13.374;2023-01-28T13:13:33;102287.25;;;2.71;67.62
67015;BME280;1033;52.560;13.374;2023-01-28T13:16:08;102281.25;;;2.80;68.35
67015;BME280;1033;52.560;13.374;2023-01-28T13:19:50;102277.31;;;2.73;68.69
67015;BME280;1033;52.560;13.374;2023-01-28T13:22:28;102270.66;;;2.79;68.63
67015;BME280;1033;52.560;13.374;2023-01-28T13:25:24;102266.66;;;2.84;68.71
67015;BME280;1033;52.560;13.374;2023-01-28T13:28:00;102268.97;;;3.11;69.06
67015;BME280;1033;52.560;13.374;2023-01-28T13:30:32;102261.81;;;3.23;67.13
67015;BME280;1033;52.560;13.374;2023-01-28T13:33:05;102260.09;;;3.11;65.18
67015;BME280;1033;52.560;13.374;2023-01-28T13:35:40;102261.72;;;3.13;64.57
67015;BME280;1033;52.560;13.374;2023-01-28T13:38:17;102265.44;;;2.88;64.67
67015;BME280;1033;52.560;13.374;2023-01-28T13:40:56;102268.44;;;2.73;62.99
67015;BME280;1033;52.560;13.374;2023-01-28T13:43:37;102258.16;;;2.90;62.22
67015;BME280;1033;52.560;13.374;2023-01-28T13:46:09;102259.13;;;2.89;62.93
67015;BME280;1033;52.560;13.374;2023-01-28T13:48:45;102253.63;;;2.69;63.17
67015;BME280;1033;52.560;13.374;2023-01-28T13:51:23;102259.84;;;2.80;62.26
67015;BME280;1033;52.560;13.374;2023-01-28T13:53:58;102256.91;;;2.72;61.73
67015;BME280;1033;52.560;13.374;2023-01-28T13:56:40;102253.22;;;2.62;61.34
67015;BME280;1033;52.560;13.374;2023-01-28T14:02:49;102247.16;;;2.60;60.74
67015;BME280;1033;52.560;13.374;2023-01-28T14:05:38;102253.72;;;2.67;60.48
67015;BME280;1033;52.560;13.374;2023-01-28T14:14:42;102240.13;;;2.81;59.93
67015;BME280;1033;52.560;13.374;2023-01-28T14:17:26;102232.97;;;2.71;59.40